Time;durP1;ratioP1;P1;durP2;ratioP2;P2;SDS_P1;SDS_P2;PMS_P1;PMS_P2;Temp;Humidity;BMP_temperature;BMP_pressure;BME280_temperature;BME280_humidity;BME280_pressure;Samples;Min_cycle;Max_cycle;Signal;HPM_P1;HPM_P2
2022/09/22 00:00:26;;;;;;;1.80;1.70;;;23.00;39.50;;;;;;6200520;23;20555;-60
2022/09/22 00:02:56;;;;;;;2.00;1.90;;;23.00;39.60;;;;;;6190199;23;20198;-65
2022/09/22 00:05:22;;;;;;;1.80;1.70;;;23.00;39.50;;;;;;6201017;23;20645;-68
2022/09/22 00:07:48;;;;;;;1.80;1.70;;;23.00;39.50;;;;;;6203574;23;20415;-61
2022/09/22 00:10:14;;;;;;;1.97;1.87;;;23.00;39.50;;;;;;6205156;23;20407;-61
2022/09/22 00:12:39;;;;;;;2.07;1.90;;;22.90;39.50;;;;;;6204265;23;20423;-63
2022/09/22 00:15:06;;;;;;;1.70;1.60;;;23.00;39.50;;;;;;6204501;23;20214;-66
2022/09/22 00:17:31;;;;;;;2.00;1.90;;;23.00;39.50;;;;;;6202275;23;20218;-62
2022/09/22 00:19:57;;;;;;;2.10;2.00;;;23.00;39.50;;;;;;6175816;23;20746;-66
2022/09/22 00:22:23;;;;;;;2.20;2.10;;;23.00;39.50;;;;;;6203965;23;20202;-60
2022/09/22 00:24:48;;;;;;;2.23;2.13;;;23.00;39.50;;;;;;6175818;23;20521;-60
2022/09/22 00:27:14;;;;;;;2.00;1.80;;;23.00;39.50;;;;;;6204311;23;20499;-60
2022/09/22 00:29:40;;;;;;;1.80;1.70;;;23.00;39.50;;;;;;6192033;23;20273;-71
2022/09/22 00:32:06;;;;;;;2.30;2.10;;;23.00;39.60;;;;;;6173828;23;20195;-59
2022/09/22 00:34:32;;;;;;;2.23;2.13;;;23.00;39.50;;;;;;6172476;23;20424;-62
2022/09/22 00:36:57;;;;;;;2.03;1.93;;;23.00;39.50;;;;;;6177446;23;20405;-61
2022/09/22 00:39:23;;;;;;;1.90;1.80;;;22.90;39.50;;;;;;6177127;23;20524;-62
2022/09/22 00:41:50;;;;;;;1.93;1.83;;;23.00;39.50;;;;;;6173283;23;20194;-68
2022/09/22 00:44:25;;;;;;;1.70;1.60;;;23.00;39.50;;;;;;6174954;23;20194;-66
2022/09/22 00:47:11;;;;;;;2.20;1.70;;;23.00;39.60;;;;;;6174517;23;20499;-61
2022/09/22 00:49:53;;;;;;;2.67;2.47;;;22.90;39.40;;;;;;6173323;23;20416;-63
2022/09/22 00:52:23;;;;;;;2.03;1.93;;;22.90;39.50;;;;;;6174826;23;20863;-63
2022/09/22 00:54:52;;;;;;;1.70;1.60;;;23.00;39.60;;;;;;6202858;23;20473;-60
2022/09/22 00:57:21;;;;;;;1.80;1.70;;;22.90;39.50;;;;;;6204635;23;20415;-63
2022/09/22 00:59:49;;;;;;;1.67;1.57;;;22.90;39.50;;;;;;6203757;23;20412;-71
2022/09/22 01:02:14;;;;;;;1.70;1.60;;;22.90;39.50;;;;;;6205462;23;20896;-64
2022/09/22 01:04:41;;;;;;;1.70;1.60;;;22.90;39.50;;;;;;6206152;23;20431;-59
2022/09/22 01:07:08;;;;;;;1.57;1.47;;;23.00;39.50;;;;;;6203872;23;20190;-68
2022/09/22 01:09:34;;;;;;;2.00;1.90;;;22.90;39.50;;;;;;6204371;23;20420;-62
2022/09/22 01:12:01;;;;;;;1.90;1.80;;;22.90;39.50;;;;;;6203309;23;20419;-62
2022/09/22 01:14:52;;;;;;;1.60;1.50;;;23.00;39.50;;;;;;6204625;23;20883;-64
2022/09/22 01:17:36;;;;;;;1.90;1.80;;;22.90;39.50;;;;;;6177374;23;20440;-61
2022/09/22 01:20:22;;;;;;;1.80;1.70;;;22.90;39.50;;;;;;6173575;23;20431;-60
2022/09/22 01:23:06;;;;;;;2.00;1.90;;;22.90;39.50;;;;;;6173285;23;20425;-60
2022/09/22 01:26:10;;;;;;;1.60;1.50;;;22.90;39.50;;;;;;6175439;23;20808;-64
2022/09/22 01:28:41;;;;;;;1.90;1.80;;;22.90;39.50;;;;;;6198418;23;20412;-66
2022/09/22 01:31:16;;;;;;;1.80;1.70;;;22.90;39.50;;;;;;6173332;23;20502;-60
2022/09/22 01:34:14;;;;;;;1.60;1.50;;;22.90;39.50;;;;;;6197825;23;20485;-65
2022/09/22 01:36:54;;;;;;;1.57;1.47;;;22.90;39.50;;;;;;6191753;23;20492;-62
2022/09/22 01:39:38;;;;;;;1.60;1.50;;;22.90;39.50;;;;;;6187376;23;20423;-61
2022/09/22 01:42:10;;;;;;;1.80;1.70;;;22.90;39.50;;;;;;6180378;23;20514;-61
2022/09/22 01:45:03;;;;;;;1.60;1.50;;;22.90;39.50;;;;;;6178711;23;20943;-67
2022/09/22 01:47:52;;;;;;;2.10;2.00;;;22.90;39.50;;;;;;6185548;22;20880;-66
2022/09/22 01:50:24;;;;;;;1.77;1.67;;;22.90;39.40;;;;;;6190155;23;20412;-61
2022/09/22 01:52:52;;;;;;;1.50;1.40;;;22.90;39.50;;;;;;6176901;23;20735;-63
2022/09/22 01:55:35;;;;;;;1.60;1.50;;;22.90;39.50;;;;;;6204797;23;20895;-62
2022/09/22 01:58:17;;;;;;;2.10;2.00;;;22.90;39.50;;;;;;6202118;23;20419;-62
2022/09/22 02:00:55;;;;;;;2.23;1.60;;;22.90;39.40;;;;;;6199538;23;20426;-60
2022/09/22 02:03:34;;;;;;;1.80;1.70;;;22.90;39.50;;;;;;6191895;23;20875;-65
2022/09/22 02:06:08;;;;;;;1.60;1.50;;;22.90;39.50;;;;;;6176345;23;20503;-63
2022/09/22 02:08:53;;;;;;;1.80;1.70;;;22.90;39.50;;;;;;6176616;23;20859;-61
2022/09/22 02:11:21;;;;;;;2.90;1.67;;;22.90;39.50;;;;;;6198830;23;20470;-74
2022/09/22 02:13:46;;;;;;;1.70;1.60;;;22.90;39.50;;;;;;6188280;23;20428;-63
2022/09/22 02:16:15;;;;;;;1.57;1.47;;;22.90;39.50;;;;;;6178972;23;20425;-64
2022/09/22 02:18:46;;;;;;;1.83;1.73;;;22.90;39.50;;;;;;6181858;23;20213;-61
2022/09/22 02:21:13;;;;;;;1.80;1.70;;;22.90;39.50;;;;;;6200834;23;20427;-71
2022/09/22 02:23:39;;;;;;;1.70;1.60;;;22.90;39.50;;;;;;6206695;23;20728;-62
2022/09/22 02:26:05;;;;;;;1.70;1.60;;;22.90;39.50;;;;;;6205743;23;20535;-67
2022/09/22 02:28:34;;;;;;;1.73;1.63;;;22.90;39.50;;;;;;6206128;23;20419;-60
2022/09/22 02:31:03;;;;;;;1.70;1.60;;;22.90;39.50;;;;;;6167332;23;20417;-64
2022/09/22 02:33:32;;;;;;;1.70;1.60;;;22.90;39.50;;;;;;6185067;23;20974;-67
2022/09/22 02:36:23;;;;;;;1.70;1.60;;;22.90;39.50;;;;;;6176712;23;20413;-70
2022/09/22 02:39:00;;;;;;;1.70;1.60;;;22.90;39.40;;;;;;6199557;23;20447;-61
2022/09/22 02:41:38;;;;;;;1.77;1.67;;;22.90;39.40;;;;;;6207429;23;21077;-61
2022/09/22 02:44:18;;;;;;;1.70;1.60;;;22.90;39.40;;;;;;6188828;23;20459;-61
2022/09/22 02:46:51;;;;;;;2.17;2.07;;;22.90;39.50;;;;;;6176350;23;20448;-71
2022/09/22 02:49:17;;;;;;;1.80;1.70;;;22.90;39.40;;;;;;6175484;23;20416;-66
2022/09/22 02:51:45;;;;;;;1.80;1.70;;;22.90;39.50;;;;;;6177717;23;20467;-62
2022/09/22 02:54:13;;;;;;;1.87;1.50;;;22.90;39.50;;;;;;6176163;23;20423;-67
2022/09/22 02:56:40;;;;;;;1.60;1.50;;;22.90;39.50;;;;;;6175955;23;20744;-60
2022/09/22 02:59:05;;;;;;;1.93;1.50;;;22.90;39.40;;;;;;6174449;23;20943;-61
2022/09/22 03:01:31;;;;;;;1.70;1.60;;;22.90;39.40;;;;;;6177524;23;20448;-66
2022/09/22 03:03:56;;;;;;;1.70;1.60;;;22.90;39.40;;;;;;6177204;23;20241;-66
2022/09/22 03:06:22;;;;;;;1.73;1.63;;;22.90;39.40;;;;;;6177293;23;20266;-62
2022/09/22 03:08:47;;;;;;;2.17;1.70;;;22.90;39.50;;;;;;6175465;23;20911;-62
2022/09/22 03:11:13;;;;;;;4.40;1.60;;;22.90;39.50;;;;;;6178155;23;20195;-62
2022/09/22 03:13:38;;;;;;;1.73;1.63;;;22.90;39.50;;;;;;6175387;23;20257;-62
2022/09/22 03:16:05;;;;;;;1.73;1.63;;;22.90;39.50;;;;;;6171651;23;20253;-64
2022/09/22 03:18:30;;;;;;;1.60;1.50;;;22.90;39.40;;;;;;6206404;23;20214;-64
2022/09/22 03:20:56;;;;;;;1.60;1.50;;;22.90;39.40;;;;;;6205891;23;20427;-61
2022/09/22 03:23:21;;;;;;;1.90;1.80;;;22.90;39.50;;;;;;6207333;23;20284;-67
2022/09/22 03:25:47;;;;;;;1.60;1.50;;;22.90;39.40;;;;;;6207469;23;20251;-65
2022/09/22 03:28:12;;;;;;;1.97;1.87;;;22.90;39.40;;;;;;6209110;23;20198;-61
2022/09/22 03:30:39;;;;;;;1.90;1.80;;;22.90;39.50;;;;;;6205781;23;20194;-61
2022/09/22 03:33:04;;;;;;;1.50;1.40;;;22.90;39.40;;;;;;6206234;23;20884;-62
2022/09/22 03:35:30;;;;;;;2.63;1.50;;;22.90;39.50;;;;;;6205953;23;20451;-62
2022/09/22 03:37:55;;;;;;;1.50;1.40;;;22.90;39.40;;;;;;6206160;23;20264;-70
2022/09/22 03:40:21;;;;;;;1.70;1.60;;;22.90;39.50;;;;;;6205170;23;20222;-67
2022/09/22 03:42:47;;;;;;;2.80;1.67;;;22.90;39.40;;;;;;6206702;23;20194;-66
2022/09/22 03:45:13;;;;;;;1.77;1.67;;;22.90;39.50;;;;;;6209495;23;20651;-62
2022/09/22 03:47:39;;;;;;;1.60;1.50;;;22.90;39.50;;;;;;6204864;23;20852;-73
2022/09/22 03:50:05;;;;;;;1.50;1.40;;;22.90;39.40;;;;;;6205827;23;20423;-65
2022/09/22 03:52:32;;;;;;;2.20;2.10;;;22.90;39.40;;;;;;6205562;23;20360;-63
2022/09/22 03:54:58;;;;;;;1.47;1.37;;;22.90;39.40;;;;;;6206814;23;20412;-68
2022/09/22 03:57:24;;;;;;;1.80;1.70;;;22.90;39.40;;;;;;6205097;23;20473;-61
2022/09/22 03:59:49;;;;;;;1.60;1.50;;;22.90;39.40;;;;;;6206132;23;20424;-68
2022/09/22 04:02:15;;;;;;;1.70;1.60;;;22.90;39.50;;;;;;6204664;23;20222;-67
2022/09/22 04:04:41;;;;;;;3.27;1.70;;;22.80;39.30;;;;;;6204082;23;20224;-61
2022/09/22 04:07:06;;;;;;;2.10;2.00;;;22.90;40.20;;;;;;6204008;23;20197;-63
2022/09/22 04:09:32;;;;;;;1.60;1.50;;;22.90;39.40;;;;;;6204185;23;20257;-62
2022/09/22 04:11:57;;;;;;;1.67;1.57;;;22.90;39.40;;;;;;6204103;23;20195;-66
2022/09/22 04:14:23;;;;;;;1.50;1.40;;;22.80;39.30;;;;;;6204206;23;20217;-59
2022/09/22 04:16:48;;;;;;;1.93;1.83;;;22.90;39.50;;;;;;6204626;23;20646;-59
2022/09/22 04:19:15;;;;;;;1.80;1.70;;;22.90;39.40;;;;;;6205415;23;20213;-63
2022/09/22 04:21:41;;;;;;;1.90;1.80;;;22.80;39.30;;;;;;6204257;23;20579;-67
2022/09/22 04:24:10;;;;;;;1.80;1.70;;;22.90;39.40;;;;;;6202100;23;20416;-63
2022/09/22 04:26:36;;;;;;;1.40;1.30;;;22.90;39.40;;;;;;6204271;23;20505;-62
2022/09/22 04:29:02;;;;;;;1.77;1.67;;;22.90;39.30;;;;;;6201202;23;20430;-62
2022/09/22 04:31:27;;;;;;;1.67;1.57;;;22.90;39.30;;;;;;6200230;23;20420;-59
2022/09/22 04:33:53;;;;;;;1.60;1.50;;;22.90;39.20;;;;;;6201729;23;20214;-65
2022/09/22 04:36:18;;;;;;;1.70;1.60;;;22.90;39.20;;;;;;6200415;23;20268;-68
2022/09/22 04:38:44;;;;;;;1.80;1.70;;;22.90;39.20;;;;;;6203662;23;20275;-61
2022/09/22 04:41:09;;;;;;;1.60;1.50;;;23.00;39.30;;;;;;6199609;23;20205;-61
2022/09/22 04:43:35;;;;;;;2.00;1.87;;;22.90;39.10;;;;;;6200221;23;20676;-61
2022/09/22 04:46:01;;;;;;;1.67;1.57;;;23.00;39.30;;;;;;6203632;23;20201;-65
2022/09/22 04:48:26;;;;;;;1.80;1.70;;;23.00;39.30;;;;;;6199144;23;20202;-67
2022/09/22 04:50:52;;;;;;;3.20;1.53;;;22.90;39.10;;;;;;6201404;23;20193;-61
2022/09/22 04:53:18;;;;;;;1.80;1.70;;;23.00;39.20;;;;;;6198062;23;20253;-60
2022/09/22 04:55:44;;;;;;;2.00;1.90;;;22.90;39.10;;;;;;6203829;23;20202;-66
2022/09/22 04:58:09;;;;;;;1.80;1.70;;;23.00;39.20;;;;;;6202364;23;20203;-62
2022/09/22 05:00:36;;;;;;;4.03;1.70;;;23.00;39.20;;;;;;6199396;23;20206;-61
2022/09/22 05:03:07;;;;;;;3.20;1.77;;;22.90;39.10;;;;;;6201977;23;20794;-61
2022/09/22 05:05:33;;;;;;;1.60;1.50;;;23.00;39.30;;;;;;6198331;23;20467;-61
2022/09/22 05:07:59;;;;;;;4.80;1.70;;;22.90;39.10;;;;;;6200096;23;20422;-69
2022/09/22 05:10:25;;;;;;;2.13;1.93;;;23.00;39.20;;;;;;6198328;23;20424;-58
2022/09/22 05:12:52;;;;;;;1.73;1.63;;;22.90;39.10;;;;;;6199750;23;20221;-64
2022/09/22 05:15:18;;;;;;;1.73;1.63;;;23.00;39.10;;;;;;6201385;23;20416;-61
2022/09/22 05:17:52;;;;;;;2.03;1.40;;;23.00;39.10;;;;;;6200343;23;20439;-63
2022/09/22 05:20:19;;;;;;;1.50;1.40;;;23.00;39.10;;;;;;6194493;23;20887;-64
2022/09/22 05:22:46;;;;;;;2.07;1.83;;;23.00;39.10;;;;;;6203990;23;20953;-63
2022/09/22 05:25:15;;;;;;;6.13;2.13;;;23.00;39.10;;;;;;6200690;23;20522;-65
2022/09/22 05:27:45;;;;;;;1.90;1.80;;;23.00;39.10;;;;;;6201506;23;20907;-61
2022/09/22 05:30:12;;;;;;;4.00;1.30;;;22.90;39.00;;;;;;6201542;23;20602;-66
2022/09/22 05:32:37;;;;;;;4.60;1.93;;;23.00;39.00;;;;;;6202468;23;20443;-66
2022/09/22 05:35:03;;;;;;;1.70;1.60;;;23.00;38.90;;;;;;6203357;23;20425;-65
2022/09/22 05:37:29;;;;;;;1.90;1.50;;;23.00;38.60;;;;;;6205914;23;20270;-60
2022/09/22 05:39:54;;;;;;;1.80;1.70;;;23.00;38.60;;;;;;6207614;23;20186;-66
2022/09/22 05:42:22;;;;;;;1.60;1.50;;;23.00;38.60;;;;;;6203867;23;20248;-61
2022/09/22 05:44:48;;;;;;;1.63;1.53;;;23.00;38.70;;;;;;6205664;23;20641;-59
2022/09/22 05:47:13;;;;;;;1.50;1.40;;;23.00;38.70;;;;;;6208288;23;20424;-61
2022/09/22 05:49:39;;;;;;;2.40;1.67;;;23.00;38.70;;;;;;6206401;23;20240;-64
2022/09/22 05:52:05;;;;;;;1.90;1.57;;;23.00;38.80;;;;;;6204600;23;20202;-60
2022/09/22 05:54:30;;;;;;;5.60;1.83;;;23.00;38.80;;;;;;6203472;23;20382;-66
2022/09/22 05:56:56;;;;;;;2.17;1.73;;;23.10;38.60;;;;;;6205358;23;20217;-59
2022/09/22 05:59:21;;;;;;;4.97;1.70;;;23.20;38.60;;;;;;6202971;23;20637;-68
2022/09/22 06:01:47;;;;;;;1.43;1.33;;;23.10;38.60;;;;;;6205996;23;20194;-63
2022/09/22 06:04:12;;;;;;;4.67;2.07;;;23.10;38.60;;;;;;6202397;23;20289;-65
2022/09/22 06:06:38;;;;;;;2.00;1.83;;;23.10;38.40;;;;;;6203717;23;20240;-64
2022/09/22 06:09:03;;;;;;;1.90;1.63;;;23.10;38.40;;;;;;6204864;23;20269;-60
2022/09/22 06:11:29;;;;;;;1.43;1.33;;;23.10;38.50;;;;;;6204785;23;20194;-68
2022/09/22 06:13:54;;;;;;;3.60;1.63;;;23.10;38.60;;;;;;6204005;23;20304;-66
2022/09/22 06:16:20;;;;;;;1.47;1.37;;;23.10;38.70;;;;;;6206545;23;20189;-63
2022/09/22 06:18:46;;;;;;;3.77;1.60;;;23.10;38.70;;;;;;6207639;23;20368;-60
2022/09/22 06:21:12;;;;;;;1.57;1.43;;;23.00;38.70;;;;;;6207372;23;20197;-61
2022/09/22 06:23:39;;;;;;;1.93;1.60;;;23.00;38.80;;;;;;6179167;23;20782;-65
2022/09/22 06:26:05;;;;;;;1.47;1.37;;;23.00;38.70;;;;;;6202179;23;20514;-63
2022/09/22 06:28:31;;;;;;;5.40;1.67;;;23.00;38.70;;;;;;6206861;23;20724;-61
2022/09/22 06:31:00;;;;;;;2.83;1.50;;;23.00;38.80;;;;;;6207352;23;20229;-61
2022/09/22 06:33:29;;;;;;;1.60;1.50;;;23.00;38.80;;;;;;6205562;23;20260;-68
2022/09/22 06:35:56;;;;;;;3.53;1.30;;;23.00;38.80;;;;;;6205309;23;20419;-60
2022/09/22 06:38:22;;;;;;;1.77;1.67;;;23.00;38.80;;;;;;6202977;23;20481;-63
2022/09/22 06:40:48;;;;;;;1.70;1.40;;;23.00;38.80;;;;;;6207432;23;20412;-64
2022/09/22 06:43:22;;;;;;;1.50;1.40;;;23.00;38.80;;;;;;6189618;23;20706;-66
2022/09/22 06:45:51;;;;;;;1.73;1.33;;;23.00;39.00;;;;;;6195458;23;20197;-62
2022/09/22 06:48:19;;;;;;;1.37;1.20;;;23.00;39.00;;;;;;6191663;23;20863;-61
2022/09/22 06:50:50;;;;;;;1.47;1.37;;;23.00;39.00;;;;;;6205035;23;20416;-60
2022/09/22 06:53:16;;;;;;;1.30;1.20;;;23.00;39.00;;;;;;6192312;23;20427;-62
2022/09/22 06:55:42;;;;;;;1.40;1.30;;;23.00;39.00;;;;;;6204502;23;20420;-72
2022/09/22 06:58:09;;;;;;;2.90;1.30;;;23.00;39.00;;;;;;6178643;23;20797;-63
2022/09/22 07:00:35;;;;;;;1.77;1.50;;;23.00;39.00;;;;;;6172319;23;20421;-65
2022/09/22 07:03:21;;;;;;;1.40;1.30;;;23.00;39.10;;;;;;6176421;23;20503;-60
2022/09/22 07:05:56;;;;;;;1.17;1.07;;;23.00;39.00;;;;;;6191290;23;20412;-63
2022/09/22 07:08:23;;;;;;;2.53;2.43;;;23.00;39.10;;;;;;6174900;23;21228;-61
2022/09/22 07:10:56;;;;;;;1.53;1.43;;;23.00;39.10;;;;;;6173228;23;20405;-63
2022/09/22 07:13:24;;;;;;;2.07;1.80;;;23.00;39.10;;;;;;6176389;23;20432;-61
2022/09/22 07:15:50;;;;;;;1.40;1.30;;;23.00;39.10;;;;;;6175043;23;20912;-59
2022/09/22 07:18:15;;;;;;;1.40;1.30;;;23.00;39.10;;;;;;6175005;23;20436;-63
2022/09/22 07:20:44;;;;;;;1.40;1.30;;;23.00;39.10;;;;;;6175456;23;20428;-67
2022/09/22 07:23:17;;;;;;;1.33;1.23;;;23.00;39.10;;;;;;6175529;23;20533;-60
2022/09/22 07:25:51;;;;;;;1.40;1.30;;;23.00;39.10;;;;;;6198876;23;20784;-62
2022/09/22 07:28:16;;;;;;;2.80;1.43;;;23.00;39.10;;;;;;6197655;23;20871;-62
2022/09/22 07:30:42;;;;;;;1.57;1.47;;;23.00;39.10;;;;;;6180113;23;20416;-67
2022/09/22 07:33:07;;;;;;;1.40;1.30;;;23.00;39.10;;;;;;6198772;23;20724;-61
2022/09/22 07:35:35;;;;;;;1.50;1.40;;;23.00;39.10;;;;;;6195449;23;20194;-62
2022/09/22 07:38:02;;;;;;;1.30;1.20;;;23.00;39.10;;;;;;6175147;23;20186;-65
2022/09/22 07:40:27;;;;;;;1.50;1.40;;;23.00;39.10;;;;;;6174046;23;20413;-60
2022/09/22 07:42:53;;;;;;;1.80;1.70;;;23.00;39.10;;;;;;6174795;23;20528;-60
2022/09/22 07:45:20;;;;;;;2.40;1.60;;;23.00;39.10;;;;;;6170324;23;20199;-61
2022/09/22 07:50:30;;;;;;;1.50;1.40;;;23.00;39.10;;;;;;6172056;23;20459;-60
2022/09/22 07:52:56;;;;;;;1.40;1.30;;;23.00;39.10;;;;;;6172346;23;20437;-67
2022/09/22 07:55:23;;;;;;;1.40;1.30;;;23.00;39.10;;;;;;6173257;23;20206;-63
2022/09/22 07:57:57;;;;;;;1.60;1.50;;;23.00;39.10;;;;;;6173183;23;20199;-60
2022/09/22 08:00:25;;;;;;;1.63;1.50;;;23.00;39.10;;;;;;6173574;23;21239;-59
2022/09/22 08:02:56;;;;;;;2.00;1.80;;;23.00;39.10;;;;;;6172912;23;20421;-59
2022/09/22 08:05:24;;;;;;;1.47;1.37;;;23.00;39.20;;;;;;6174108;23;20412;-60
2022/09/22 08:07:50;;;;;;;1.60;1.50;;;23.00;39.10;;;;;;6176271;23;20444;-60
2022/09/22 08:10:17;;;;;;;1.50;1.40;;;23.00;39.20;;;;;;6176142;23;20420;-63
2022/09/22 08:12:43;;;;;;;1.53;1.43;;;23.00;39.10;;;;;;6175051;23;20439;-60
2022/09/22 08:15:11;;;;;;;1.60;1.50;;;23.00;39.20;;;;;;6174347;23;20740;-60
2022/09/22 08:17:38;;;;;;;1.40;1.30;;;23.00;39.20;;;;;;6172015;23;20217;-61
2022/09/22 08:20:05;;;;;;;1.80;1.70;;;23.00;39.10;;;;;;6170700;23;20818;-60
2022/09/22 08:22:33;;;;;;;1.67;1.57;;;23.00;39.10;;;;;;6175073;23;20440;-61
2022/09/22 08:24:58;;;;;;;1.60;1.50;;;23.00;39.10;;;;;;6172407;23;20524;-63
2022/09/22 08:27:25;;;;;;;2.17;1.40;;;23.00;40.00;;;;;;6175562;23;20449;-60
2022/09/22 08:29:50;;;;;;;1.60;1.50;;;23.00;39.10;;;;;;6172759;23;20202;-63
2022/09/22 08:32:18;;;;;;;1.50;1.40;;;23.00;39.10;;;;;;6175116;23;20456;-68
2022/09/22 08:34:44;;;;;;;1.50;1.40;;;23.00;39.10;;;;;;6176182;23;20217;-61
2022/09/22 08:37:10;;;;;;;1.80;1.70;;;23.00;39.20;;;;;;6174469;23;20424;-60
2022/09/22 08:39:35;;;;;;;2.07;1.40;;;23.00;39.10;;;;;;6175144;23;20497;-60
2022/09/22 08:42:20;;;;;;;1.50;1.40;;;23.00;39.10;;;;;;6175023;23;20902;-62
2022/09/22 08:44:56;;;;;;;1.40;1.30;;;23.00;39.10;;;;;;6192732;23;20258;-65
2022/09/22 08:53:13;;;;;;;1.60;1.50;;;23.00;39.20;;;;;;6204173;23;20427;-62
2022/09/22 08:55:42;;;;;;;1.53;1.43;;;23.00;39.20;;;;;;6203696;23;20408;-62
2022/09/22 08:58:14;;;;;;;2.10;1.93;;;23.00;39.20;;;;;;6204467;23;20411;-66
2022/09/22 09:00:51;;;;;;;1.43;1.33;;;23.00;39.20;;;;;;6203575;23;20411;-60
2022/09/22 09:03:42;;;;;;;1.60;1.50;;;23.00;39.20;;;;;;6204505;23;20411;-65
2022/09/22 09:06:17;;;;;;;1.60;1.50;;;23.00;39.10;;;;;;6205284;23;21022;-60
2022/09/22 09:09:17;;;;;;;1.23;1.13;;;23.00;39.20;;;;;;6175317;23;21005;-60
2022/09/22 09:12:11;;;;;;;1.60;1.50;;;23.00;39.20;;;;;;6176138;23;20419;-59
2022/09/22 09:14:54;;;;;;;1.50;1.40;;;23.00;39.20;;;;;;6178059;22;20428;-62
2022/09/22 09:17:26;;;;;;;1.73;1.63;;;23.00;39.20;;;;;;6191516;23;20436;-60
2022/09/22 09:20:02;;;;;;;1.47;1.37;;;23.00;39.20;;;;;;6176111;23;20723;-61
2022/09/22 09:22:39;;;;;;;1.73;1.63;;;23.00;39.20;;;;;;6187378;23;20419;-61
2022/09/22 09:25:14;;;;;;;1.47;1.37;;;23.00;39.20;;;;;;6204537;23;20480;-59
2022/09/22 09:27:43;;;;;;;1.30;1.20;;;23.00;39.20;;;;;;6205163;23;20423;-61
2022/09/22 09:30:17;;;;;;;3.53;1.50;;;23.00;39.20;;;;;;6206120;23;20414;-60
2022/09/22 09:33:10;;;;;;;1.73;1.63;;;23.00;39.20;;;;;;6192589;23;20842;-62
2022/09/22 09:35:44;;;;;;;1.40;1.30;;;23.00;39.20;;;;;;6121090;23;20500;-66
2022/09/22 09:38:13;;;;;;;1.97;1.30;;;23.00;39.20;;;;;;6169491;23;20408;-60
2022/09/22 09:40:39;;;;;;;1.50;1.40;;;23.00;39.20;;;;;;6169646;23;20491;-67
2022/09/22 09:43:06;;;;;;;1.73;1.60;;;23.00;39.20;;;;;;6170386;23;20485;-63
2022/09/22 09:45:50;;;;;;;1.60;1.50;;;23.00;39.20;;;;;;6192893;23;20905;-69
2022/09/22 09:48:16;;;;;;;1.40;1.30;;;23.00;39.20;;;;;;6202702;23;20408;-60
2022/09/22 09:50:41;;;;;;;1.53;1.43;;;23.00;39.20;;;;;;6176399;23;20415;-66
2022/09/22 09:53:23;;;;;;;1.67;1.57;;;23.00;39.20;;;;;;6202687;23;20621;-69
2022/09/22 09:55:49;;;;;;;1.57;1.40;;;23.00;39.20;;;;;;6170567;23;20190;-68
2022/09/22 10:00:29;;;;;;;1.53;1.43;;;23.00;39.20;;;;;;6171485;23;20451;-62
2022/09/22 10:01:01;;;;;;;2.50;1.27;;;23.10;39.20;;;;;;6194481;23;20194;-61
2022/09/22 10:03:31;;;;;;;1.40;1.30;;;23.10;39.30;;;;;;6189967;23;20420;-63
2022/09/22 10:06:01;;;;;;;1.50;1.40;;;23.00;39.20;;;;;;6168186;23;20770;-64
2022/09/22 10:08:30;;;;;;;1.43;1.33;;;23.10;39.20;;;;;;6174520;23;20971;-63
2022/09/22 10:10:58;;;;;;;1.60;1.50;;;23.00;39.20;;;;;;6196322;23;20416;-65
2022/09/22 10:13:34;;;;;;;1.50;1.40;;;23.00;39.20;;;;;;6171629;23;20464;-65
2022/09/22 10:16:20;;;;;;;1.50;1.40;;;23.00;39.20;;;;;;6178561;23;20422;-68
2022/09/22 10:18:47;;;;;;;1.60;1.50;;;23.00;39.20;;;;;;6191837;23;20427;-67
2022/09/22 10:21:21;;;;;;;1.50;1.40;;;23.00;39.20;;;;;;6199441;23;21006;-64
2022/09/22 10:23:57;;;;;;;1.77;1.67;;;23.00;39.20;;;;;;6166169;23;20866;-63
2022/09/22 10:26:28;;;;;;;1.50;1.40;;;23.00;39.20;;;;;;6173043;23;20931;-62
2022/09/22 10:29:11;;;;;;;1.30;1.20;;;23.00;39.20;;;;;;6171930;23;20959;-59
2022/09/22 10:31:38;;;;;;;1.53;1.43;;;23.00;39.30;;;;;;6168831;23;20427;-60
2022/09/22 10:34:06;;;;;;;1.40;1.30;;;23.00;39.30;;;;;;6169594;23;20523;-64
2022/09/22 10:36:34;;;;;;;1.37;1.20;;;23.00;39.20;;;;;;6170531;23;20413;-63
2022/09/22 10:39:00;;;;;;;1.47;1.37;;;23.00;39.20;;;;;;6178673;23;21247;-65
2022/09/22 10:41:32;;;;;;;1.30;1.20;;;23.00;39.30;;;;;;6202914;23;20438;-63
2022/09/22 10:44:16;;;;;;;1.47;1.37;;;23.00;39.30;;;;;;6200629;23;20193;-63
2022/09/22 10:46:59;;;;;;;1.77;1.67;;;23.00;39.30;;;;;;6174694;23;20516;-67
2022/09/22 10:50:02;;;;;;;1.37;1.27;;;23.00;39.30;;;;;;6192418;23;20419;-63
2022/09/22 10:52:44;;;;;;;1.50;1.40;;;23.00;39.30;;;;;;6195793;23;20427;-68
2022/09/22 10:55:19;;;;;;;1.60;1.50;;;23.00;40.10;;;;;;6170296;23;20514;-67
2022/09/22 10:58:02;;;;;;;1.43;1.33;;;23.00;39.40;;;;;;6203114;23;20436;-59
2022/09/22 11:00:33;;;;;;;2.10;2.00;;;23.00;39.30;;;;;;6185198;23;20421;-65
2022/09/22 11:03:34;;;;;;;1.50;1.40;;;23.00;39.30;;;;;;6198302;23;20515;-65
2022/09/22 11:13:04;;;;;;;1.40;1.30;;;23.00;39.40;;;;;;6191389;23;20450;-61
2022/09/22 11:16:01;;;;;;;2.17;1.60;;;22.90;39.30;;;;;;6171750;23;20432;-69
2022/09/22 11:18:51;;;;;;;1.50;1.40;;;23.00;39.40;;;;;;6194598;23;21281;-61
2022/09/22 11:21:16;;;;;;;1.80;1.50;;;22.90;39.40;;;;;;6200938;23;20415;-60
2022/09/22 11:23:48;;;;;;;1.60;1.50;;;22.90;39.30;;;;;;6204892;23;20412;-62
2022/09/22 11:26:27;;;;;;;1.30;1.20;;;22.90;39.40;;;;;;6196393;23;20190;-59
2022/09/22 11:29:08;;;;;;;1.40;1.30;;;22.90;39.30;;;;;;6179351;23;20424;-65
2022/09/22 11:31:58;;;;;;;1.33;1.23;;;22.90;39.40;;;;;;6198478;23;20411;-65
2022/09/22 11:34:27;;;;;;;1.77;1.67;;;22.90;39.40;;;;;;6167517;23;20751;-67
2022/09/22 11:37:24;;;;;;;1.40;1.30;;;22.90;39.40;;;;;;6169382;23;20428;-59
2022/09/22 11:40:01;;;;;;;1.50;1.40;;;22.90;39.30;;;;;;6196568;23;20415;-63
2022/09/22 11:42:33;;;;;;;1.50;1.40;;;22.90;39.40;;;;;;6199597;23;21282;-63
2022/09/22 11:45:19;;;;;;;1.30;1.20;;;22.90;39.30;;;;;;6201531;23;20416;-64
2022/09/22 11:48:04;;;;;;;1.70;1.60;;;22.90;39.30;;;;;;6194507;23;20785;-60
2022/09/22 11:50:53;;;;;;;1.47;1.37;;;22.90;39.50;;;;;;6188358;23;20422;-68
2022/09/22 11:53:32;;;;;;;1.40;1.30;;;22.90;40.10;;;;;;6193973;23;20918;-61
2022/09/22 11:56:20;;;;;;;1.63;1.53;;;22.90;39.40;;;;;;6198276;23;20423;-63
2022/09/22 11:58:47;;;;;;;1.53;1.43;;;22.90;39.50;;;;;;6175094;23;20423;-61
2022/09/22 12:01:19;;;;;;;1.70;1.60;;;22.90;39.40;;;;;;6194932;23;20431;-60
2022/09/22 12:03:52;;;;;;;1.20;1.10;;;22.90;39.50;;;;;;6177090;23;20935;-61
2022/09/22 12:06:25;;;;;;;1.40;1.30;;;22.90;39.40;;;;;;6170811;23;20420;-61
2022/09/22 12:08:54;;;;;;;1.50;1.40;;;22.90;39.50;;;;;;6170590;23;20416;-64
2022/09/22 12:11:23;;;;;;;1.40;1.30;;;22.90;39.50;;;;;;6172027;23;20425;-63
2022/09/22 12:13:52;;;;;;;1.40;1.30;;;22.90;39.50;;;;;;6169524;23;20516;-62
2022/09/22 12:16:40;;;;;;;1.60;1.50;;;22.90;39.50;;;;;;6172209;23;20421;-63
2022/09/22 12:19:12;;;;;;;1.83;1.73;;;22.90;39.50;;;;;;6116224;23;20499;-60
2022/09/22 12:21:46;;;;;;;1.63;1.53;;;22.90;39.50;;;;;;6122767;23;20426;-66
2022/09/22 12:24:12;;;;;;;1.53;1.43;;;22.90;39.50;;;;;;6121374;23;20758;-62
2022/09/22 12:26:40;;;;;;;1.90;1.80;;;22.90;39.50;;;;;;6115269;23;20867;-59
2022/09/22 12:29:20;;;;;;;3.20;1.40;;;22.90;39.50;;;;;;6116006;23;20204;-59
2022/09/22 12:31:47;;;;;;;1.63;1.53;;;22.90;39.50;;;;;;6122349;23;20414;-61
2022/09/22 12:34:25;;;;;;;1.60;1.50;;;22.90;39.50;;;;;;6128015;23;20749;-59
2022/09/22 12:36:55;;;;;;;1.60;1.50;;;22.90;39.60;;;;;;6124702;23;20496;-59
2022/09/22 12:39:30;;;;;;;1.37;1.27;;;22.90;39.50;;;;;;6113899;23;20670;-62
2022/09/22 12:42:04;;;;;;;1.50;1.40;;;22.90;39.50;;;;;;6137886;23;20740;-61
2022/09/22 12:44:36;;;;;;;1.40;1.30;;;22.90;40.20;;;;;;6143455;23;20429;-61
2022/09/22 12:47:05;;;;;;;1.60;1.50;;;22.90;39.50;;;;;;6145529;23;20468;-62
2022/09/22 12:49:31;;;;;;;1.50;1.40;;;22.90;39.50;;;;;;6140547;23;20475;-61
2022/09/22 12:51:57;;;;;;;1.50;1.40;;;22.90;39.50;;;;;;6137173;23;20730;-67
2022/09/22 12:54:22;;;;;;;1.50;1.40;;;22.90;39.50;;;;;;6144288;23;20218;-60
2022/09/22 12:57:10;;;;;;;1.47;1.37;;;22.90;39.50;;;;;;6146736;23;20561;-60
2022/09/22 12:59:35;;;;;;;1.73;1.43;;;22.90;39.50;;;;;;6143838;23;20227;-60
2022/09/22 13:02:10;;;;;;;1.50;1.40;;;22.90;39.60;;;;;;6145117;23;20498;-60
2022/09/22 13:04:36;;;;;;;1.50;1.40;;;22.90;39.50;;;;;;6143823;23;20623;-66
2022/09/22 13:07:02;;;;;;;1.47;1.37;;;22.90;39.60;;;;;;6144523;23;20429;-64
2022/09/22 13:09:29;;;;;;;1.43;1.33;;;22.90;39.60;;;;;;6145676;23;20885;-65
2022/09/22 13:12:13;;;;;;;1.50;1.40;;;22.90;39.60;;;;;;6144946;23;20476;-62
2022/09/22 13:15:00;;;;;;;1.40;1.30;;;22.90;39.50;;;;;;6143444;23;20420;-67
2022/09/22 13:17:39;;;;;;;1.43;1.33;;;22.90;40.30;;;;;;6141965;23;20558;-63
2022/09/22 13:20:22;;;;;;;1.60;1.50;;;22.80;39.50;;;;;;6196733;23;20420;-61
2022/09/22 13:22:49;;;;;;;1.57;1.47;;;22.90;39.50;;;;;;6191426;23;20474;-64